Time;durP1;ratioP1;P1;durP2;ratioP2;P2;SDS_P1;SDS_P2;PMS_P1;PMS_P2;Temp;Humidity;BMP_temperature;BMP_pressure;BME280_temperature;BME280_humidity;BME280_pressure;Samples;Min_cycle;Max_cycle;Signal;HPM_P1;HPM_P2
2022/03/13 00:00:37;;;;;;;98.47;55.03;;;;;;;;;;5013339;28;20177;-59
2022/03/13 00:03:04;;;;;;;110.20;56.60;;;;;;;;;;5013556;28;20180;-60
2022/03/13 00:05:30;;;;;;;109.45;56.92;;;;;;;;;;5013561;28;20554;-58
2022/03/13 00:07:56;;;;;;;106.22;56.58;;;;;;;;;;5013629;28;20265;-59
2022/03/13 00:10:25;;;;;;;105.67;58.10;;;;;;;;;;5013298;28;20250;-57
2022/03/13 00:12:51;;;;;;;108.13;55.42;;;;;;;;;;5013351;28;20426;-59
2022/03/13 00:15:23;;;;;;;81.23;50.90;;;;;;;;;;5013293;28;20562;-59
2022/03/13 00:17:50;;;;;;;103.95;54.65;;;;;;;;;;5013920;28;20520;-57
2022/03/13 00:20:17;;;;;;;104.88;56.42;;;;;;;;;;5013199;28;20179;-56
2022/03/13 00:22:43;;;;;;;104.10;55.70;;;;;;;;;;5013332;28;20198;-58
2022/03/13 00:25:09;;;;;;;111.60;57.30;;;;;;;;;;5013080;28;20702;-59
2022/03/13 00:27:35;;;;;;;112.72;57.83;;;;;;;;;;5013112;28;20415;-59
2022/03/13 00:30:04;;;;;;;103.10;54.40;;;;;;;;;;5013584;28;20170;-58
2022/03/13 00:32:30;;;;;;;106.63;56.10;;;;;;;;;;5013022;28;20164;-56
2022/03/13 00:34:56;;;;;;;104.43;54.80;;;;;;;;;;5013088;28;20687;-58
2022/03/13 00:37:22;;;;;;;109.72;56.70;;;;;;;;;;5012990;28;20591;-59
2022/03/13 00:39:50;;;;;;;101.40;54.17;;;;;;;;;;5012913;28;20233;-58
2022/03/13 00:42:17;;;;;;;94.65;55.22;;;;;;;;;;5012701;28;20404;-58
2022/03/13 00:44:43;;;;;;;31.70;29.40;;;;;;;;;;5012782;28;20214;-59
2022/03/13 00:47:09;;;;;;;20.20;19.25;;;;;;;;;;5012894;28;20229;-59
2022/03/13 00:49:35;;;;;;;14.67;14.10;;;;;;;;;;5012817;28;20180;-58
2022/03/13 00:52:01;;;;;;;14.00;13.50;;;;;;;;;;5012551;28;20412;-59
2022/03/13 00:54:28;;;;;;;16.23;15.57;;;;;;;;;;5012566;28;20443;-55
2022/03/13 00:56:54;;;;;;;17.98;17.17;;;;;;;;;;5012896;28;20568;-57
2022/03/13 00:59:20;;;;;;;13.65;13.18;;;;;;;;;;5012712;28;20591;-59
2022/03/13 01:01:46;;;;;;;13.57;13.13;;;;;;;;;;5012453;28;20193;-59
2022/03/13 01:04:12;;;;;;;13.13;12.73;;;;;;;;;;5012311;28;20688;-59
2022/03/13 01:06:40;;;;;;;12.63;12.23;;;;;;;;;;5012554;28;20464;-57
2022/03/13 01:09:06;;;;;;;13.35;12.88;;;;;;;;;;5012340;28;20414;-57
2022/03/13 01:11:32;;;;;;;13.80;13.30;;;;;;;;;;5012174;28;20658;-59
2022/03/13 01:13:58;;;;;;;10.80;10.50;;;;;;;;;;5012431;28;20938;-59
2022/03/13 01:16:28;;;;;;;16.77;16.07;;;;;;;;;;5012272;28;20493;-59
2022/03/13 01:18:58;;;;;;;11.40;11.05;;;;;;;;;;5012309;28;20406;-59
2022/03/13 01:21:25;;;;;;;12.15;11.75;;;;;;;;;;5012049;28;20171;-59
2022/03/13 01:24:00;;;;;;;12.98;12.52;;;;;;;;;;5011996;28;20195;-60
2022/03/13 01:26:26;;;;;;;11.45;11.13;;;;;;;;;;5011555;28;20170;-59
2022/03/13 01:28:57;;;;;;;12.57;12.17;;;;;;;;;;5012189;28;20224;-59
2022/03/13 01:31:24;;;;;;;14.07;13.57;;;;;;;;;;5011864;28;20432;-59
2022/03/13 01:33:50;;;;;;;13.43;12.93;;;;;;;;;;5012071;28;20211;-59
2022/03/13 01:36:16;;;;;;;13.55;13.10;;;;;;;;;;5011981;28;20167;-58
2022/03/13 01:38:42;;;;;;;17.00;16.30;;;;;;;;;;5012174;28;20355;-59
2022/03/13 01:41:08;;;;;;;14.85;14.32;;;;;;;;;;5011835;28;20489;-59
2022/03/13 01:43:35;;;;;;;13.30;12.88;;;;;;;;;;5011937;28;20203;-58
2022/03/13 01:46:02;;;;;;;13.23;12.75;;;;;;;;;;5011970;28;20225;-59
2022/03/13 01:48:29;;;;;;;17.23;16.52;;;;;;;;;;5011970;28;20182;-59
2022/03/13 01:50:55;;;;;;;16.95;16.25;;;;;;;;;;5011627;28;20178;-59
2022/03/13 01:53:23;;;;;;;16.95;16.25;;;;;;;;;;5011748;28;20547;-59
2022/03/13 01:55:49;;;;;;;12.80;12.40;;;;;;;;;;5011983;28;20195;-59
2022/03/13 01:58:16;;;;;;;11.38;11.07;;;;;;;;;;5011861;28;20177;-59
2022/03/13 02:00:42;;;;;;;11.50;11.15;;;;;;;;;;5011559;28;20178;-59
2022/03/13 02:03:08;;;;;;;12.67;12.27;;;;;;;;;;5011541;28;20266;-59
2022/03/13 02:05:35;;;;;;;4.90;4.80;;;;;;;;;;5011657;28;20465;-57
2022/03/13 02:08:05;;;;;;;9.43;9.20;;;;;;;;;;5011852;28;20414;-59
2022/03/13 02:10:31;;;;;;;12.13;11.73;;;;;;;;;;5011502;28;20181;-59
2022/03/13 02:12:58;;;;;;;7.53;7.33;;;;;;;;;;5012070;28;20169;-58
2022/03/13 02:15:29;;;;;;;5.07;4.97;;;;;;;;;;5011998;28;20436;-59
2022/03/13 02:17:55;;;;;;;3.85;3.75;;;;;;;;;;5011610;28;20214;-58
2022/03/13 02:20:27;;;;;;;5.23;5.03;;;;;;;;;;5011043;28;20170;-59
2022/03/13 02:22:53;;;;;;;4.97;4.88;;;;;;;;;;5011538;28;20551;-59
2022/03/13 02:25:21;;;;;;;4.30;4.20;;;;;;;;;;5011464;28;20207;-59
2022/03/13 02:27:47;;;;;;;3.20;3.10;;;;;;;;;;5011606;28;20170;-56
2022/03/13 02:30:13;;;;;;;4.10;4.00;;;;;;;;;;5011324;28;20175;-55
2022/03/13 02:32:39;;;;;;;4.93;4.82;;;;;;;;;;5011981;28;20516;-59
2022/03/13 02:35:05;;;;;;;4.57;4.47;;;;;;;;;;5011677;28;20237;-58
2022/03/13 02:37:39;;;;;;;5.35;5.25;;;;;;;;;;5012518;28;20415;-59
2022/03/13 02:40:06;;;;;;;7.80;7.57;;;;;;;;;;5015123;28;20261;-58
2022/03/13 02:42:32;;;;;;;7.85;7.65;;;;;;;;;;5015265;28;20183;-59
2022/03/13 02:44:58;;;;;;;6.00;5.80;;;;;;;;;;5015840;28;20271;-59
2022/03/13 02:47:24;;;;;;;6.20;6.10;;;;;;;;;;5015392;28;20487;-59
2022/03/13 02:49:50;;;;;;;7.57;7.37;;;;;;;;;;5015827;28;20275;-59
2022/03/13 02:52:16;;;;;;;6.60;6.50;;;;;;;;;;5014284;28;20939;-58
2022/03/13 02:54:42;;;;;;;5.17;5.07;;;;;;;;;;5014881;28;20498;-59
2022/03/13 02:57:08;;;;;;;3.80;3.70;;;;;;;;;;5015040;28;20429;-58
2022/03/13 02:59:34;;;;;;;5.23;5.13;;;;;;;;;;5014782;28;20488;-59
2022/03/13 03:02:03;;;;;;;5.05;4.95;;;;;;;;;;5014516;28;20410;-59
2022/03/13 03:04:29;;;;;;;4.70;4.60;;;;;;;;;;5014557;28;20294;-59
2022/03/13 03:06:59;;;;;;;4.97;4.87;;;;;;;;;;5014762;28;20605;-57
2022/03/13 03:09:26;;;;;;;4.85;4.75;;;;;;;;;;5014716;28;20436;-59
2022/03/13 03:11:52;;;;;;;5.85;5.75;;;;;;;;;;5014350;28;20171;-59
2022/03/13 03:14:19;;;;;;;6.60;6.47;;;;;;;;;;5014565;28;20202;-59
2022/03/13 03:16:45;;;;;;;6.85;6.75;;;;;;;;;;5014559;28;20420;-58
2022/03/13 03:19:11;;;;;;;7.47;7.28;;;;;;;;;;5014540;28;20178;-58
2022/03/13 03:21:39;;;;;;;6.45;6.35;;;;;;;;;;5014377;28;20320;-58
2022/03/13 03:24:15;;;;;;;5.20;5.10;;;;;;;;;;5014360;28;20188;-58
2022/03/13 03:26:42;;;;;;;6.25;6.15;;;;;;;;;;5014378;28;20180;-59
2022/03/13 03:29:08;;;;;;;7.50;7.30;;;;;;;;;;5014664;28;20274;-59
2022/03/13 03:31:39;;;;;;;6.18;6.07;;;;;;;;;;5014066;28;20180;-57
2022/03/13 03:34:07;;;;;;;7.10;6.90;;;;;;;;;;5014631;28;20195;-58
2022/03/13 03:36:33;;;;;;;6.95;6.75;;;;;;;;;;5014175;28;20177;-58
2022/03/13 03:38:59;;;;;;;3.73;3.63;;;;;;;;;;5014307;28;20180;-58
2022/03/13 03:41:25;;;;;;;6.80;6.60;;;;;;;;;;5014079;28;20409;-58
2022/03/13 03:43:51;;;;;;;9.83;9.53;;;;;;;;;;5014013;28;20425;-57
2022/03/13 03:46:17;;;;;;;8.10;7.90;;;;;;;;;;5014236;28;20433;-59
2022/03/13 03:48:43;;;;;;;8.60;8.40;;;;;;;;;;5013609;28;20776;-59
2022/03/13 03:51:09;;;;;;;8.23;8.03;;;;;;;;;;5013622;28;20433;-59
2022/03/13 03:53:35;;;;;;;7.20;7.00;;;;;;;;;;5013790;28;20839;-59
2022/03/13 03:56:02;;;;;;;6.03;5.93;;;;;;;;;;5013877;28;20181;-59
2022/03/13 03:58:28;;;;;;;6.18;6.07;;;;;;;;;;5013912;28;20408;-59
2022/03/13 04:00:54;;;;;;;4.53;4.43;;;;;;;;;;5013691;28;20178;-58
2022/03/13 04:05:54;;;;;;;5.70;5.60;;;;;;;;;;5055404;22;20499;-63
2022/03/13 04:08:20;;;;;;;6.65;6.45;;;;;;;;;;5033384;28;20521;-63
2022/03/13 04:10:46;;;;;;;8.90;8.70;;;;;;;;;;5033109;28;20172;-63
2022/03/13 04:13:12;;;;;;;11.10;10.70;;;;;;;;;;5033250;28;20433;-63
2022/03/13 04:15:38;;;;;;;9.80;9.50;;;;;;;;;;5033172;28;20428;-63
2022/03/13 04:18:04;;;;;;;4.93;4.83;;;;;;;;;;5033273;28;20831;-63
2022/03/13 04:20:29;;;;;;;12.50;12.10;;;;;;;;;;5032877;28;20412;-63
2022/03/13 04:22:56;;;;;;;11.03;10.73;;;;;;;;;;5033310;28;20411;-63
2022/03/13 04:25:22;;;;;;;7.95;7.75;;;;;;;;;;5032954;28;20468;-63
2022/03/13 04:27:48;;;;;;;6.93;6.80;;;;;;;;;;5033101;28;20172;-63
2022/03/13 04:30:14;;;;;;;13.32;12.82;;;;;;;;;;5032773;28;20816;-63
2022/03/13 04:32:41;;;;;;;9.18;8.95;;;;;;;;;;5033003;28;20173;-62
2022/03/13 04:35:07;;;;;;;11.00;10.70;;;;;;;;;;5032756;28;20575;-63
2022/03/13 04:37:33;;;;;;;12.52;12.13;;;;;;;;;;5032860;28;20200;-63
2022/03/13 04:39:59;;;;;;;10.98;10.68;;;;;;;;;;5032943;28;20268;-63
2022/03/13 04:42:25;;;;;;;8.27;8.07;;;;;;;;;;5032592;28;20280;-63
2022/03/13 04:44:52;;;;;;;12.52;12.13;;;;;;;;;;5032598;28;20460;-63
2022/03/13 04:47:18;;;;;;;14.40;13.82;;;;;;;;;;5032600;28;20173;-63
2022/03/13 04:49:44;;;;;;;14.52;13.90;;;;;;;;;;5032539;28;20184;-63
2022/03/13 04:52:10;;;;;;;20.42;19.35;;;;;;;;;;5032506;28;20255;-63
2022/03/13 04:54:36;;;;;;;21.63;20.35;;;;;;;;;;5032476;28;20248;-63
2022/03/13 04:57:03;;;;;;;31.63;28.98;;;;;;;;;;5032479;28;20200;-63
2022/03/13 04:59:29;;;;;;;33.47;30.50;;;;;;;;;;5032550;28;20553;-63
2022/03/13 05:01:55;;;;;;;51.00;40.25;;;;;;;;;;5031186;28;20200;-63
2022/03/13 05:04:21;;;;;;;64.47;41.63;;;;;;;;;;5032129;28;20688;-63
2022/03/13 05:06:47;;;;;;;64.23;41.47;;;;;;;;;;5032320;28;20400;-63
2022/03/13 05:09:13;;;;;;;62.60;40.70;;;;;;;;;;5032277;28;20407;-63
2022/03/13 05:11:39;;;;;;;65.70;43.42;;;;;;;;;;5032021;28;20434;-63
2022/03/13 05:14:05;;;;;;;62.25;42.47;;;;;;;;;;5032211;28;20189;-63
2022/03/13 05:16:31;;;;;;;62.63;43.07;;;;;;;;;;5032039;28;20260;-63
2022/03/13 05:18:57;;;;;;;60.72;43.33;;;;;;;;;;5032016;28;20404;-63
2022/03/13 05:21:23;;;;;;;57.80;40.77;;;;;;;;;;5032301;28;20174;-63
2022/03/13 05:23:49;;;;;;;48.50;38.30;;;;;;;;;;5031974;28;20770;-61
2022/03/13 05:26:15;;;;;;;57.67;42.20;;;;;;;;;;5031894;28;20491;-63
2022/03/13 05:28:41;;;;;;;47.13;36.78;;;;;;;;;;5031811;28;20400;-63
2022/03/13 05:31:07;;;;;;;55.28;41.28;;;;;;;;;;5013771;28;20218;-63
2022/03/13 05:33:34;;;;;;;58.00;42.33;;;;;;;;;;5031675;28;20175;-63
2022/03/13 05:36:00;;;;;;;52.83;39.28;;;;;;;;;;5031897;28;20172;-63
2022/03/13 05:38:26;;;;;;;59.10;42.38;;;;;;;;;;5031887;28;20196;-63
2022/03/13 05:40:53;;;;;;;55.15;40.65;;;;;;;;;;5031504;28;20723;-63
2022/03/13 05:43:23;;;;;;;56.28;41.15;;;;;;;;;;5031785;28;20704;-63
2022/03/13 05:45:49;;;;;;;63.58;42.45;;;;;;;;;;5031471;28;20231;-63
2022/03/13 05:48:17;;;;;;;61.20;40.65;;;;;;;;;;5031598;28;20173;-63
2022/03/13 05:50:44;;;;;;;63.33;42.33;;;;;;;;;;5031380;28;20167;-63
2022/03/13 05:53:09;;;;;;;63.70;43.67;;;;;;;;;;5031613;28;20673;-61
2022/03/13 05:55:35;;;;;;;64.97;44.17;;;;;;;;;;5031552;28;20204;-60
2022/03/13 05:58:02;;;;;;;70.00;45.47;;;;;;;;;;5031603;28;20408;-63
2022/03/13 06:00:31;;;;;;;61.75;42.25;;;;;;;;;;5031215;28;20461;-63
2022/03/13 06:02:57;;;;;;;53.88;39.80;;;;;;;;;;5031681;28;20211;-63
2022/03/13 06:05:23;;;;;;;62.83;43.00;;;;;;;;;;5031315;28;20703;-63
2022/03/13 06:07:50;;;;;;;65.70;43.20;;;;;;;;;;5031544;28;20178;-63
2022/03/13 06:10:16;;;;;;;69.40;46.33;;;;;;;;;;5031240;28;21122;-63
2022/03/13 06:12:43;;;;;;;61.08;42.17;;;;;;;;;;5032818;28;20552;-63
2022/03/13 06:15:11;;;;;;;62.83;44.28;;;;;;;;;;5035378;28;20313;-63
2022/03/13 06:17:42;;;;;;;56.75;41.03;;;;;;;;;;5035436;28;20209;-63
2022/03/13 06:20:10;;;;;;;55.10;41.88;;;;;;;;;;5035223;28;20184;-62
2022/03/13 06:22:36;;;;;;;53.05;41.15;;;;;;;;;;5035461;28;20172;-63
2022/03/13 06:25:02;;;;;;;57.63;41.80;;;;;;;;;;5035150;28;20742;-63
2022/03/13 06:27:27;;;;;;;58.63;41.03;;;;;;;;;;5035174;28;20403;-63
2022/03/13 06:29:54;;;;;;;58.00;42.27;;;;;;;;;;5035148;28;20738;-63
2022/03/13 06:32:20;;;;;;;58.65;43.20;;;;;;;;;;5034912;28;20457;-63
2022/03/13 06:34:46;;;;;;;50.17;39.10;;;;;;;;;;5035057;28;20201;-63
2022/03/13 06:37:12;;;;;;;63.25;43.92;;;;;;;;;;5035133;28;20419;-63
2022/03/13 06:39:38;;;;;;;65.53;43.80;;;;;;;;;;5035093;28;20177;-63
2022/03/13 06:42:04;;;;;;;57.80;42.63;;;;;;;;;;5034688;28;20407;-63
2022/03/13 06:44:30;;;;;;;57.05;42.05;;;;;;;;;;5034780;28;20527;-63
2022/03/13 06:46:56;;;;;;;55.08;41.00;;;;;;;;;;5034915;28;20641;-63
2022/03/13 06:49:22;;;;;;;53.23;40.90;;;;;;;;;;5034766;28;20220;-63
2022/03/13 06:51:48;;;;;;;57.10;42.93;;;;;;;;;;5034580;28;20404;-63
2022/03/13 06:54:14;;;;;;;59.57;44.00;;;;;;;;;;5035014;28;20420;-63
2022/03/13 06:56:40;;;;;;;64.18;44.35;;;;;;;;;;5034701;28;20413;-63
2022/03/13 06:59:06;;;;;;;61.27;43.03;;;;;;;;;;5034683;28;20165;-63
2022/03/13 07:01:33;;;;;;;65.80;43.80;;;;;;;;;;5034377;28;20893;-63
2022/03/13 07:03:59;;;;;;;60.42;43.75;;;;;;;;;;5034383;28;20467;-63
2022/03/13 07:06:25;;;;;;;63.13;44.50;;;;;;;;;;5034511;28;20175;-63
2022/03/13 07:08:51;;;;;;;53.40;42.30;;;;;;;;;;5034513;28;20399;-63
2022/03/13 07:11:17;;;;;;;54.80;42.60;;;;;;;;;;5039773;28;20428;-63
2022/03/13 07:13:45;;;;;;;57.08;42.88;;;;;;;;;;5054136;28;20512;-63
2022/03/13 07:16:12;;;;;;;56.55;43.08;;;;;;;;;;5054255;28;20534;-63
2022/03/13 07:18:39;;;;;;;58.30;44.33;;;;;;;;;;5054407;28;20180;-63
2022/03/13 07:21:05;;;;;;;58.50;43.15;;;;;;;;;;5054048;28;20280;-62
2022/03/13 07:23:31;;;;;;;63.20;45.40;;;;;;;;;;5053060;28;20238;-63
2022/03/13 07:25:57;;;;;;;60.23;45.37;;;;;;;;;;5053376;28;20675;-62
2022/03/13 07:28:23;;;;;;;62.17;44.53;;;;;;;;;;5054322;28;20408;-63
2022/03/13 07:30:49;;;;;;;64.40;45.43;;;;;;;;;;5053749;28;20999;-63
2022/03/13 07:33:15;;;;;;;66.30;47.80;;;;;;;;;;5053771;28;20437;-63
2022/03/13 07:35:41;;;;;;;62.10;44.63;;;;;;;;;;5053836;28;20436;-63
2022/03/13 07:38:08;;;;;;;66.00;45.53;;;;;;;;;;5054077;28;20181;-62
2022/03/13 07:40:34;;;;;;;71.20;49.40;;;;;;;;;;5053610;28;20176;-63
2022/03/13 07:43:00;;;;;;;61.45;46.20;;;;;;;;;;5053868;28;20177;-63
2022/03/13 07:45:26;;;;;;;61.30;46.88;;;;;;;;;;5053095;28;20251;-63
2022/03/13 07:47:57;;;;;;;63.90;47.87;;;;;;;;;;5053880;28;20182;-63
2022/03/13 07:50:23;;;;;;;59.10;50.80;;;;;;;;;;5053467;28;20485;-63
2022/03/13 07:52:50;;;;;;;57.55;48.55;;;;;;;;;;5053355;28;20522;-63
2022/03/13 07:55:16;;;;;;;54.85;48.95;;;;;;;;;;5053470;28;20199;-63
2022/03/13 07:57:42;;;;;;;55.45;48.38;;;;;;;;;;5036978;28;20852;-63
2022/03/13 08:00:10;;;;;;;54.87;49.17;;;;;;;;;;5033067;28;20183;-63
2022/03/13 08:02:36;;;;;;;50.58;45.53;;;;;;;;;;5033500;28;20418;-63
2022/03/13 08:05:02;;;;;;;55.23;49.37;;;;;;;;;;5036811;28;20208;-63
2022/03/13 08:07:28;;;;;;;59.08;52.97;;;;;;;;;;5052974;28;20414;-63
2022/03/13 08:09:55;;;;;;;58.87;52.27;;;;;;;;;;5052870;28;20174;-63
2022/03/13 08:12:21;;;;;;;57.03;51.05;;;;;;;;;;5053011;28;20497;-63
2022/03/13 08:14:47;;;;;;;59.67;53.27;;;;;;;;;;5053005;28;20230;-64
2022/03/13 08:17:15;;;;;;;65.20;57.13;;;;;;;;;;5053391;28;21098;-63
2022/03/13 08:19:41;;;;;;;67.43;60.40;;;;;;;;;;5053171;28;20175;-64
2022/03/13 08:22:07;;;;;;;64.10;57.20;;;;;;;;;;5052589;28;20179;-64
2022/03/13 08:24:33;;;;;;;68.35;61.33;;;;;;;;;;5032933;28;20466;-64
2022/03/13 08:26:59;;;;;;;65.20;58.83;;;;;;;;;;5032587;28;20184;-63
2022/03/13 08:29:25;;;;;;;65.20;58.77;;;;;;;;;;5032951;28;20770;-64
2022/03/13 08:31:51;;;;;;;68.43;61.63;;;;;;;;;;5032639;28;20910;-62
2022/03/13 08:34:17;;;;;;;73.27;66.07;;;;;;;;;;5032801;28;20463;-62
2022/03/13 08:36:44;;;;;;;83.60;75.32;;;;;;;;;;5032412;28;20407;-62
2022/03/13 08:39:10;;;;;;;81.63;73.78;;;;;;;;;;5032712;28;20181;-62
2022/03/13 08:41:36;;;;;;;81.30;74.17;;;;;;;;;;5032538;28;20184;-61
2022/03/13 08:44:03;;;;;;;86.17;78.57;;;;;;;;;;5032474;28;20431;-62
2022/03/13 08:46:29;;;;;;;92.43;84.13;;;;;;;;;;5032575;28;20410;-62
2022/03/13 08:48:54;;;;;;;90.37;82.60;;;;;;;;;;5032540;28;20173;-62
2022/03/13 08:51:23;;;;;;;98.90;90.70;;;;;;;;;;5032162;28;20407;-62
2022/03/13 08:53:49;;;;;;;103.22;95.03;;;;;;;;;;5032343;28;20437;-62
2022/03/13 08:56:15;;;;;;;118.97;109.37;;;;;;;;;;5032378;28;20173;-62
2022/03/13 08:58:42;;;;;;;126.63;115.93;;;;;;;;;;5032485;28;20414;-62
2022/03/13 09:01:08;;;;;;;147.90;137.00;;;;;;;;;;5032123;28;20408;-62
2022/03/13 09:03:34;;;;;;;162.23;150.95;;;;;;;;;;5032252;28;20186;-62
2022/03/13 09:06:00;;;;;;;117.13;111.33;;;;;;;;;;5031906;28;20203;-62
2022/03/13 09:08:26;;;;;;;214.17;202.37;;;;;;;;;;5032341;28;20497;-62
2022/03/13 09:10:53;;;;;;;229.70;218.23;;;;;;;;;;5031954;28;20498;-62
2022/03/13 09:13:20;;;;;;;228.60;218.67;;;;;;;;;;5032156;28;20491;-63
2022/03/13 09:15:46;;;;;;;208.07;200.20;;;;;;;;;;5032076;28;20792;-63
2022/03/13 09:18:13;;;;;;;178.33;172.03;;;;;;;;;;5031969;28;20502;-63
2022/03/13 09:20:39;;;;;;;258.83;249.77;;;;;;;;;;5031658;28;20936;-63
2022/03/13 09:23:06;;;;;;;306.53;295.53;;;;;;;;;;5031872;28;20415;-63
2022/03/13 09:25:32;;;;;;;263.47;254.87;;;;;;;;;;5031750;28;20838;-63
2022/03/13 09:27:58;;;;;;;226.53;219.37;;;;;;;;;;5031802;28;20507;-63
2022/03/13 09:30:24;;;;;;;254.67;246.57;;;;;;;;;;5031486;28;20499;-63
2022/03/13 09:32:50;;;;;;;238.33;230.97;;;;;;;;;;5031741;28;20384;-63
2022/03/13 09:35:16;;;;;;;281.17;272.07;;;;;;;;;;5031564;28;20440;-63
2022/03/13 09:37:42;;;;;;;357.33;345.00;;;;;;;;;;5031728;28;20393;-63
2022/03/13 09:40:09;;;;;;;384.40;370.80;;;;;;;;;;5031430;28;20418;-63
2022/03/13 09:42:35;;;;;;;359.97;347.57;;;;;;;;;;5031737;28;20805;-63
2022/03/13 09:45:01;;;;;;;356.60;344.30;;;;;;;;;;5031479;28;20466;-63
2022/03/13 09:47:31;;;;;;;294.27;284.87;;;;;;;;;;5031067;28;20461;-63
2022/03/13 09:49:57;;;;;;;431.93;415.83;;;;;;;;;;5031637;28;20438;-63
2022/03/13 09:52:23;;;;;;;575.00;551.90;;;;;;;;;;5031768;28;20417;-63
2022/03/13 09:54:49;;;;;;;917.20;865.10;;;;;;;;;;5031655;28;20477;-64
2022/03/13 09:57:17;;;;;;;932.03;864.27;;;;;;;;;;5031631;28;20416;-64
2022/03/13 09:59:45;;;;;;;463.43;446.07;;;;;;;;;;5031540;28;20828;-64
2022/03/13 10:02:11;;;;;;;455.97;438.83;;;;;;;;;;5031251;28;20421;-63
2022/03/13 10:04:37;;;;;;;438.50;422.20;;;;;;;;;;5048744;22;20477;-62
2022/03/13 10:07:05;;;;;;;535.50;514.33;;;;;;;;;;5011798;28;20838;-61
2022/03/13 10:09:32;;;;;;;498.47;479.33;;;;;;;;;;5011695;28;20402;-61
2022/03/13 10:12:07;;;;;;;418.17;402.80;;;;;;;;;;5011437;28;20438;-62
2022/03/13 10:14:34;;;;;;;308.07;298.10;;;;;;;;;;5011543;28;20948;-62
2022/03/13 10:17:00;;;;;;;268.43;260.20;;;;;;;;;;5011630;28;20405;-61
2022/03/13 10:19:27;;;;;;;445.37;428.53;;;;;;;;;;5011731;28;20450;-62
2022/03/13 10:22:01;;;;;;;610.00;584.93;;;;;;;;;;5011365;28;20404;-62
2022/03/13 10:24:27;;;;;;;675.90;647.40;;;;;;;;;;5010325;28;20463;-62
2022/03/13 10:27:13;;;;;;;657.20;629.53;;;;;;;;;;5011568;28;20472;-61
2022/03/13 10:29:39;;;;;;;697.90;668.30;;;;;;;;;;5011556;28;20435;-62
2022/03/13 10:32:05;;;;;;;779.23;744.77;;;;;;;;;;5011380;28;20804;-62
2022/03/13 10:34:32;;;;;;;772.07;737.87;;;;;;;;;;5011469;28;20405;-62
2022/03/13 10:36:58;;;;;;;734.37;702.50;;;;;;;;;;5011542;28;20502;-61
2022/03/13 10:39:25;;;;;;;857.97;818.27;;;;;;;;;;5011385;28;20973;-63
2022/03/13 10:42:00;;;;;;;881.50;839.20;;;;;;;;;;5011160;28;20730;-61
2022/03/13 10:44:27;;;;;;;908.10;863.10;;;;;;;;;;5011281;28;21001;-61
2022/03/13 10:47:05;;;;;;;907.90;857.93;;;;;;;;;;5011492;28;20445;-61
2022/03/13 10:49:49;;;;;;;906.27;855.73;;;;;;;;;;5009219;28;20773;-62
2022/03/13 10:52:31;;;;;;;897.70;849.50;;;;;;;;;;5010961;28;20387;-61
2022/03/13 10:55:01;;;;;;;900.20;850.20;;;;;;;;;;5011172;28;20433;-62
2022/03/13 10:57:27;;;;;;;895.00;847.60;;;;;;;;;;5010848;28;20420;-61
2022/03/13 11:00:07;;;;;;;899.00;850.50;;;;;;;;;;5014438;28;20420;-61
2022/03/13 11:02:33;;;;;;;883.77;835.77;;;;;;;;;;5013393;28;20853;-60
2022/03/13 11:05:00;;;;;;;871.57;823.90;;;;;;;;;;5014343;28;20479;-61
2022/03/13 11:07:27;;;;;;;867.17;820.13;;;;;;;;;;5014747;28;20397;-60
2022/03/13 11:09:54;;;;;;;839.77;794.37;;;;;;;;;;5014103;28;20405;-61
2022/03/13 11:12:23;;;;;;;863.90;815.50;;;;;;;;;;5014419;28;20850;-60
2022/03/13 11:14:51;;;;;;;841.73;795.53;;;;;;;;;;5014610;28;20458;-61
2022/03/13 11:17:18;;;;;;;863.07;813.57;;;;;;;;;;5014670;28;20480;-61
2022/03/13 11:19:48;;;;;;;870.00;820.60;;;;;;;;;;5013987;28;20444;-61
2022/03/13 11:22:16;;;;;;;846.77;797.97;;;;;;;;;;5014241;28;20413;-61
2022/03/13 11:24:42;;;;;;;851.00;802.27;;;;;;;;;;5014395;28;20904;-61
2022/03/13 11:27:10;;;;;;;873.37;822.50;;;;;;;;;;5014234;28;20389;-60
2022/03/13 11:29:40;;;;;;;866.93;817.27;;;;;;;;;;5016617;28;20458;-61
2022/03/13 11:32:26;;;;;;;847.13;798.87;;;;;;;;;;5015240;28;20440;-56
2022/03/13 11:35:14;;;;;;;843.13;797.83;;;;;;;;;;5014086;28;20440;-59
2022/03/13 11:37:41;;;;;;;805.90;764.77;;;;;;;;;;5014376;28;20415;-59
2022/03/13 11:40:07;;;;;;;815.77;766.10;;;;;;;;;;5013881;28;20483;-58
2022/03/13 11:42:50;;;;;;;824.27;772.47;;;;;;;;;;5013171;28;20427;-60
2022/03/13 11:45:34;;;;;;;836.23;784.93;;;;;;;;;;5013859;28;20449;-59
2022/03/13 11:48:06;;;;;;;830.20;779.37;;;;;;;;;;5014159;28;20417;-58
2022/03/13 11:50:51;;;;;;;830.17;778.90;;;;;;;;;;5013994;28;20979;-60
2022/03/13 11:53:17;;;;;;;823.90;772.90;;;;;;;;;;5013526;28;20436;-59
2022/03/13 11:56:09;;;;;;;830.30;782.40;;;;;;;;;;5013642;28;20913;-61
2022/03/13 11:58:42;;;;;;;829.93;784.30;;;;;;;;;;5013618;28;20412;-60
2022/03/13 12:01:09;;;;;;;837.47;792.27;;;;;;;;;;5013555;28;20420;-60
2022/03/13 12:03:35;;;;;;;819.77;774.77;;;;;;;;;;5013831;28;20492;-58
2022/03/13 12:06:02;;;;;;;831.40;782.80;;;;;;;;;;5013401;28;20473;-60
2022/03/13 12:08:47;;;;;;;828.17;781.00;;;;;;;;;;5013528;28;20820;-60
2022/03/13 12:11:34;;;;;;;814.87;769.17;;;;;;;;;;5012360;28;20436;-59
2022/03/13 12:14:00;;;;;;;794.03;748.93;;;;;;;;;;5013290;28;20405;-62
2022/03/13 12:16:26;;;;;;;778.87;738.20;;;;;;;;;;5013383;28;20931;-61
2022/03/13 12:18:58;;;;;;;739.70;698.00;;;;;;;;;;5013392;28;20780;-60
2022/03/13 12:21:24;;;;;;;738.20;694.73;;;;;;;;;;5013172;28;20418;-59
2022/03/13 12:23:52;;;;;;;722.73;677.63;;;;;;;;;;5013261;28;20407;-61
2022/03/13 12:26:22;;;;;;;710.53;664.53;;;;;;;;;;5013338;28;20464;-62
2022/03/13 12:28:49;;;;;;;676.83;632.70;;;;;;;;;;5013161;28;20787;-60
2022/03/13 12:31:15;;;;;;;656.90;616.70;;;;;;;;;;5012782;28;20409;-61
2022/03/13 12:33:48;;;;;;;529.13;507.03;;;;;;;;;;5013134;28;20415;-63
2022/03/13 12:36:15;;;;;;;593.40;559.10;;;;;;;;;;5012876;28;20789;-61
2022/03/13 12:38:47;;;;;;;559.10;532.23;;;;;;;;;;5012984;28;20776;-61
2022/03/13 12:41:14;;;;;;;557.83;523.20;;;;;;;;;;5012790;28;20923;-61
2022/03/13 12:43:52;;;;;;;504.33;474.43;;;;;;;;;;5013019;28;20408;-61
2022/03/13 12:46:18;;;;;;;473.97;445.83;;;;;;;;;;5012743;28;21030;-61
2022/03/13 12:48:55;;;;;;;361.77;346.83;;;;;;;;;;5012754;28;20539;-60
2022/03/13 12:51:38;;;;;;;325.10;312.10;;;;;;;;;;5012797;28;20404;-61
2022/03/13 12:54:29;;;;;;;483.27;450.80;;;;;;;;;;5013968;28;20396;-58
2022/03/13 12:56:56;;;;;;;446.70;423.43;;;;;;;;;;5012934;28;20417;-59
2022/03/13 12:59:40;;;;;;;331.13;317.33;;;;;;;;;;5012771;28;20416;-59
2022/03/13 13:02:10;;;;;;;469.23;438.23;;;;;;;;;;5012602;28;20404;-59
2022/03/13 13:04:40;;;;;;;441.23;411.27;;;;;;;;;;5012438;28;20475;-58
2022/03/13 13:07:09;;;;;;;437.73;407.53;;;;;;;;;;5012633;28;20408;-59
2022/03/13 13:09:36;;;;;;;451.27;423.83;;;;;;;;;;5012404;28;20408;-60
2022/03/13 13:12:03;;;;;;;415.73;391.73;;;;;;;;;;5012587;28;20412;-60
2022/03/13 13:14:30;;;;;;;436.37;405.97;;;;;;;;;;5012427;28;20543;-61
2022/03/13 13:16:57;;;;;;;419.23;393.37;;;;;;;;;;5012560;28;20405;-60
2022/03/13 13:19:23;;;;;;;410.60;384.20;;;;;;;;;;5012326;28;20409;-61
2022/03/13 13:21:56;;;;;;;143.93;138.63;;;;;;;;;;5011280;28;20471;-61
2022/03/13 13:24:28;;;;;;;168.43;162.03;;;;;;;;;;5012280;28;20431;-61
2022/03/13 13:26:54;;;;;;;150.97;145.37;;;;;;;;;;5012479;28;20491;-60
2022/03/13 13:29:36;;;;;;;86.57;83.47;;;;;;;;;;5012110;28;20436;-60
2022/03/13 13:32:21;;;;;;;103.97;100.27;;;;;;;;;;5012135;28;20780;-60
2022/03/13 13:35:07;;;;;;;97.43;93.97;;;;;;;;;;5012093;28;20463;-59
2022/03/13 13:37:33;;;;;;;49.10;47.40;;;;;;;;;;5012268;28;20412;-61
2022/03/13 13:40:03;;;;;;;54.57;52.67;;;;;;;;;;5012199;28;20776;-57
2022/03/13 13:42:32;;;;;;;69.07;66.67;;;;;;;;;;5012003;28;20408;-60
2022/03/13 13:44:58;;;;;;;64.47;62.23;;;;;;;;;;5011913;28;20464;-61
2022/03/13 13:47:24;;;;;;;78.43;75.63;;;;;;;;;;5011958;28;20405;-59
2022/03/13 13:49:50;;;;;;;97.97;94.47;;;;;;;;;;5011968;28;20416;-58
2022/03/13 13:52:17;;;;;;;87.97;84.87;;;;;;;;;;5011701;28;20777;-60
2022/03/13 13:54:43;;;;;;;111.40;107.43;;;;;;;;;;5011939;28;20524;-61
2022/03/13 13:57:21;;;;;;;109.37;105.47;;;;;;;;;;5011930;28;20900;-61
2022/03/13 13:59:47;;;;;;;84.97;81.87;;;;;;;;;;5008486;28;20420;-60
2022/03/13 14:02:21;;;;;;;146.00;140.40;;;;;;;;;;5011718;28;20827;-61
2022/03/13 14:04:49;;;;;;;291.90;277.70;;;;;;;;;;5011701;28;20489;-61
2022/03/13 14:07:15;;;;;;;371.47;340.93;;;;;;;;;;5011866;28;20420;-60
2022/03/13 14:09:42;;;;;;;385.37;356.50;;;;;;;;;;5011775;28;20405;-59
2022/03/13 14:12:08;;;;;;;374.70;346.77;;;;;;;;;;5011509;28;20407;-57
2022/03/13 14:14:34;;;;;;;354.40;327.23;;;;;;;;;;5011872;28;20432;-61
2022/03/13 14:17:01;;;;;;;368.00;339.90;;;;;;;;;;5011960;28;20416;-60